sensor_id;sensor_type;location;lat;lon;timestamp;pressure;altitude;pressure_sealevel;temperature;humidity
34103;BME280;20381;54.498;18.206;2023-03-15T00:01:02;97939.53;;;3.26;98.18
34103;BME280;20381;54.498;18.206;2023-03-15T00:03:31;97959.33;;;3.25;98.09
34103;BME280;20381;54.498;18.206;2023-03-15T00:06:00;97972.97;;;3.27;98.22
34103;BME280;20381;54.498;18.206;2023-03-15T00:08:26;97981.48;;;3.29;98.20
34103;BME280;20381;54.498;18.206;2023-03-15T00:10:53;97994.38;;;3.29;98.22
34103;BME280;20381;54.498;18.206;2023-03-15T00:13:19;98000.38;;;3.30;98.23
34103;BME280;20381;54.498;18.206;2023-03-15T00:15:48;97997.59;;;3.34;98.29
34103;BME280;20381;54.498;18.206;2023-03-15T00:18:17;97993.21;;;3.36;98.13
34103;BME280;20381;54.498;18.206;2023-03-15T00:20:44;98000.55;;;3.35;98.06
34103;BME280;20381;54.498;18.206;2023-03-15T00:23:12;98001.09;;;3.33;98.15
34103;BME280;20381;54.498;18.206;2023-03-15T00:25:42;98011.78;;;3.34;98.36
34103;BME280;20381;54.498;18.206;2023-03-15T00:28:09;98011.27;;;3.36;98.26
34103;BME280;20381;54.498;18.206;2023-03-15T00:30:36;98020.21;;;3.38;98.22
34103;BME280;20381;54.498;18.206;2023-03-15T00:33:03;98023.11;;;3.41;98.28
34103;BME280;20381;54.498;18.206;2023-03-15T00:35:38;98025.17;;;3.43;98.26
34103;BME280;20381;54.498;18.206;2023-03-15T00:38:06;98021.53;;;3.47;98.00
34103;BME280;20381;54.498;18.206;2023-03-15T00:40:35;98028.81;;;3.47;98.07
34103;BME280;20381;54.498;18.206;2023-03-15T00:43:02;98034.06;;;3.46;97.95
34103;BME280;20381;54.498;18.206;2023-03-15T00:45:29;98035.87;;;3.44;97.87
34103;BME280;20381;54.498;18.206;2023-03-15T00:47:56;98039.88;;;3.41;97.81
34103;BME280;20381;54.498;18.206;2023-03-15T00:50:23;98044.13;;;3.42;97.88
34103;BME280;20381;54.498;18.206;2023-03-15T00:52:49;98051.48;;;3.41;97.83
34103;BME280;20381;54.498;18.206;2023-03-15T00:55:17;98043.75;;;3.41;97.86
34103;BME280;20381;54.498;18.206;2023-03-15T00:57:45;98052.72;;;3.42;97.87
34103;BME280;20381;54.498;18.206;2023-03-15T01:00:19;98061.89;;;3.39;97.79
34103;BME280;20381;54.498;18.206;2023-03-15T01:02:45;98067.48;;;3.39;97.70
34103;BME280;20381;54.498;18.206;2023-03-15T01:05:12;98076.66;;;3.35;97.76
34103;BME280;20381;54.498;18.206;2023-03-15T01:07:40;98077.94;;;3.35;97.74
34103;BME280;20381;54.498;18.206;2023-03-15T01:10:11;98086.09;;;3.36;97.75
34103;BME280;20381;54.498;18.206;2023-03-15T01:12:38;98088.66;;;3.36;97.59
34103;BME280;20381;54.498;18.206;2023-03-15T01:15:06;98090.38;;;3.36;97.71
34103;BME280;20381;54.498;18.206;2023-03-15T01:17:36;98098.98;;;3.36;97.71
34103;BME280;20381;54.498;18.206;2023-03-15T01:20:04;98100.28;;;3.36;97.62
34103;BME280;20381;54.498;18.206;2023-03-15T01:22:31;98104.52;;;3.38;97.68
34103;BME280;20381;54.498;18.206;2023-03-15T01:24:58;98100.65;;;3.38;97.59
34103;BME280;20381;54.498;18.206;2023-03-15T01:27:24;98109.73;;;3.36;97.61
34103;BME280;20381;54.498;18.206;2023-03-15T01:29:51;98111.11;;;3.34;97.57
34103;BME280;20381;54.498;18.206;2023-03-15T01:32:18;98111.88;;;3.36;97.66
34103;BME280;20381;54.498;18.206;2023-03-15T01:34:44;98121.05;;;3.33;97.57
34103;BME280;20381;54.498;18.206;2023-03-15T01:37:11;98128.79;;;3.33;97.75
34103;BME280;20381;54.498;18.206;2023-03-15T01:39:40;98129.95;;;3.36;97.68
34103;BME280;20381;54.498;18.206;2023-03-15T01:42:09;98133.03;;;3.34;97.55
34103;BME280;20381;54.498;18.206;2023-03-15T01:47:21;98135.94;;;3.37;97.70
34103;BME280;20381;54.498;18.206;2023-03-15T01:49:56;98141.92;;;3.38;97.69
34103;BME280;20381;54.498;18.206;2023-03-15T01:52:36;98142.95;;;3.44;97.57
34103;BME280;20381;54.498;18.206;2023-03-15T01:55:14;98143.08;;;3.51;97.52
34103;BME280;20381;54.498;18.206;2023-03-15T01:57:50;98151.46;;;3.56;97.06
34103;BME280;20381;54.498;18.206;2023-03-15T02:00:21;98149.84;;;3.53;96.91
34103;BME280;20381;54.498;18.206;2023-03-15T02:02:54;98153.95;;;3.57;96.96
34103;BME280;20381;54.498;18.206;2023-03-15T02:05:31;98169.39;;;3.59;96.91
34103;BME280;20381;54.498;18.206;2023-03-15T02:08:01;98169.66;;;3.53;97.48
34103;BME280;20381;54.498;18.206;2023-03-15T02:10:33;98172.62;;;3.44;97.60
34103;BME280;20381;54.498;18.206;2023-03-15T02:13:02;98180.22;;;3.57;97.27
34103;BME280;20381;54.498;18.206;2023-03-15T02:15:30;98189.84;;;3.43;97.62
34103;BME280;20381;54.498;18.206;2023-03-15T02:17:57;98189.39;;;3.54;97.72
34103;BME280;20381;54.498;18.206;2023-03-15T02:23:26;98196.44;;;3.50;97.59
34103;BME280;20381;54.498;18.206;2023-03-15T02:28:39;98206.78;;;3.69;97.17
34103;BME280;20381;54.498;18.206;2023-03-15T02:31:07;98205.66;;;3.56;97.22
34103;BME280;20381;54.498;18.206;2023-03-15T02:33:42;98212.86;;;3.68;96.97
34103;BME280;20381;54.498;18.206;2023-03-15T02:36:17;98213.31;;;3.57;97.22
34103;BME280;20381;54.498;18.206;2023-03-15T02:38:46;98219.72;;;3.49;97.58
34103;BME280;20381;54.498;18.206;2023-03-15T02:41:21;98230.95;;;3.48;97.69
34103;BME280;20381;54.498;18.206;2023-03-15T02:43:46;98229.02;;;3.53;97.67
34103;BME280;20381;54.498;18.206;2023-03-15T02:46:15;98235.71;;;3.57;96.84
34103;BME280;20381;54.498;18.206;2023-03-15T02:48:43;98241.05;;;3.52;97.33
34103;BME280;20381;54.498;18.206;2023-03-15T02:51:22;98231.31;;;3.39;97.61
34103;BME280;20381;54.498;18.206;2023-03-15T02:53:51;98245.26;;;3.34;97.55
34103;BME280;20381;54.498;18.206;2023-03-15T02:56:18;98249.39;;;3.28;97.62
34103;BME280;20381;54.498;18.206;2023-03-15T02:58:45;98256.09;;;3.22;97.60
34103;BME280;20381;54.498;18.206;2023-03-15T03:01:13;98257.76;;;3.23;97.52
34103;BME280;20381;54.498;18.206;2023-03-15T03:03:42;98265.13;;;3.22;96.79
34103;BME280;20381;54.498;18.206;2023-03-15T03:06:10;98277.61;;;3.21;96.65
34103;BME280;20381;54.498;18.206;2023-03-15T03:08:39;98277.86;;;3.15;96.70
34103;BME280;20381;54.498;18.206;2023-03-15T03:11:06;98277.61;;;3.11;96.78
34103;BME280;20381;54.498;18.206;2023-03-15T03:13:33;98277.33;;;3.07;96.59
34103;BME280;20381;54.498;18.206;2023-03-15T03:15:59;98283.32;;;2.85;97.22
34103;BME280;20381;54.498;18.206;2023-03-15T03:18:28;98292.59;;;2.79;97.47
34103;BME280;20381;54.498;18.206;2023-03-15T03:20:58;98297.28;;;2.80;97.69
34103;BME280;20381;54.498;18.206;2023-03-15T03:23:25;98300.73;;;2.80;97.79
34103;BME280;20381;54.498;18.206;2023-03-15T03:25:52;98310.84;;;2.85;97.92
34103;BME280;20381;54.498;18.206;2023-03-15T03:28:27;98315.84;;;2.89;97.96
34103;BME280;20381;54.498;18.206;2023-03-15T03:30:53;98322.66;;;2.90;97.84
34103;BME280;20381;54.498;18.206;2023-03-15T03:33:21;98325.53;;;2.95;97.99
34103;BME280;20381;54.498;18.206;2023-03-15T03:35:48;98325.78;;;2.99;97.97
34103;BME280;20381;54.498;18.206;2023-03-15T03:38:15;98329.16;;;3.01;97.88
34103;BME280;20381;54.498;18.206;2023-03-15T03:40:42;98336.88;;;3.01;97.83
34103;BME280;20381;54.498;18.206;2023-03-15T03:43:10;98347.98;;;3.03;97.87
34103;BME280;20381;54.498;18.206;2023-03-15T03:45:37;98348.25;;;3.07;97.94
34103;BME280;20381;54.498;18.206;2023-03-15T03:48:04;98357.61;;;3.09;97.96
34103;BME280;20381;54.498;18.206;2023-03-15T03:50:31;98356.66;;;3.12;97.98
34103;BME280;20381;54.498;18.206;2023-03-15T03:52:57;98368.02;;;3.18;98.07
34103;BME280;20381;54.498;18.206;2023-03-15T03:55:24;98367.89;;;3.21;98.03
34103;BME280;20381;54.498;18.206;2023-03-15T03:57:51;98372.47;;;3.25;98.00
34103;BME280;20381;54.498;18.206;2023-03-15T04:00:18;98375.34;;;3.29;98.02
34103;BME280;20381;54.498;18.206;2023-03-15T04:02:47;98385.86;;;3.34;97.99
34103;BME280;20381;54.498;18.206;2023-03-15T04:05:14;98386.32;;;3.34;97.88
34103;BME280;20381;54.498;18.206;2023-03-15T04:07:40;98395.80;;;3.33;97.62
34103;BME280;20381;54.498;18.206;2023-03-15T04:10:09;98408.04;;;3.28;97.51
34103;BME280;20381;54.498;18.206;2023-03-15T04:12:37;98410.73;;;3.25;97.52
34103;BME280;20381;54.498;18.206;2023-03-15T04:15:06;98416.64;;;3.17;97.44
34103;BME280;20381;54.498;18.206;2023-03-15T04:17:33;98427.45;;;3.15;97.55
34103;BME280;20381;54.498;18.206;2023-03-15T04:20:00;98431.06;;;3.11;97.49
34103;BME280;20381;54.498;18.206;2023-03-15T04:22:27;98429.48;;;3.07;97.56
34103;BME280;20381;54.498;18.206;2023-03-15T04:24:53;98428.92;;;2.99;97.32
34103;BME280;20381;54.498;18.206;2023-03-15T04:27:22;98428.36;;;2.90;97.24
34103;BME280;20381;54.498;18.206;2023-03-15T04:29:48;98439.06;;;2.80;97.15
34103;BME280;20381;54.498;18.206;2023-03-15T04:32:15;98444.06;;;2.73;97.29
34103;BME280;20381;54.498;18.206;2023-03-15T04:34:42;98443.53;;;2.63;97.31
34103;BME280;20381;54.498;18.206;2023-03-15T04:37:10;98448.11;;;2.55;97.31
34103;BME280;20381;54.498;18.206;2023-03-15T04:39:36;98454.97;;;2.56;97.56
34103;BME280;20381;54.498;18.206;2023-03-15T04:42:05;98451.70;;;2.51;97.50
34103;BME280;20381;54.498;18.206;2023-03-15T04:44:32;98449.24;;;2.48;97.68
34103;BME280;20381;54.498;18.206;2023-03-15T04:46:59;98446.56;;;2.62;97.79
34103;BME280;20381;54.498;18.206;2023-03-15T04:49:25;98461.27;;;2.72;97.14
34103;BME280;20381;54.498;18.206;2023-03-15T04:51:52;98467.03;;;2.67;96.89
34103;BME280;20381;54.498;18.206;2023-03-15T04:54:19;98472.19;;;2.67;96.90
34103;BME280;20381;54.498;18.206;2023-03-15T04:56:45;98472.41;;;2.61;97.39
34103;BME280;20381;54.498;18.206;2023-03-15T04:59:12;98477.69;;;2.81;96.93
34103;BME280;20381;54.498;18.206;2023-03-15T05:01:38;98482.69;;;2.86;96.71
34103;BME280;20381;54.498;18.206;2023-03-15T05:04:05;98490.23;;;2.90;96.57
34103;BME280;20381;54.498;18.206;2023-03-15T05:06:32;98488.91;;;2.92;96.49
34103;BME280;20381;54.498;18.206;2023-03-15T05:08:58;98487.44;;;2.97;96.49
34103;BME280;20381;54.498;18.206;2023-03-15T05:11:25;98493.39;;;2.99;96.46
34103;BME280;20381;54.498;18.206;2023-03-15T05:13:52;98498.73;;;2.94;96.60
34103;BME280;20381;54.498;18.206;2023-03-15T05:16:18;98495.73;;;2.81;97.19
34103;BME280;20381;54.498;18.206;2023-03-15T05:18:46;98503.58;;;2.78;97.30
34103;BME280;20381;54.498;18.206;2023-03-15T05:21:15;98504.22;;;2.72;97.40
34103;BME280;20381;54.498;18.206;2023-03-15T05:23:42;98506.27;;;2.75;97.62
34103;BME280;20381;54.498;18.206;2023-03-15T05:26:08;98522.50;;;2.77;97.69
34103;BME280;20381;54.498;18.206;2023-03-15T05:28:39;98522.84;;;2.80;97.69
34103;BME280;20381;54.498;18.206;2023-03-15T05:31:05;98550.09;;;2.75;97.40
34103;BME280;20381;54.498;18.206;2023-03-15T05:33:32;98552.66;;;2.75;97.49
34103;BME280;20381;54.498;18.206;2023-03-15T05:36:00;98561.23;;;2.76;97.51
34103;BME280;20381;54.498;18.206;2023-03-15T05:38:28;98557.81;;;2.75;97.35
34103;BME280;20381;54.498;18.206;2023-03-15T05:40:59;98557.12;;;2.70;97.30
34103;BME280;20381;54.498;18.206;2023-03-15T05:43:26;98562.28;;;2.70;97.47
34103;BME280;20381;54.498;18.206;2023-03-15T05:45:53;98562.52;;;2.76;97.58
34103;BME280;20381;54.498;18.206;2023-03-15T05:48:19;98569.80;;;2.76;97.36
34103;BME280;20381;54.498;18.206;2023-03-15T05:50:46;98573.22;;;2.77;97.45
34103;BME280;20381;54.498;18.206;2023-03-15T05:53:13;98587.14;;;2.84;97.56
34103;BME280;20381;54.498;18.206;2023-03-15T05:55:39;98583.97;;;2.89;97.66
34103;BME280;20381;54.498;18.206;2023-03-15T05:58:06;98593.67;;;2.95;97.41
34103;BME280;20381;54.498;18.206;2023-03-15T06:00:32;98605.97;;;3.00;97.55
34103;BME280;20381;54.498;18.206;2023-03-15T06:02:59;98607.42;;;3.07;97.64
34103;BME280;20381;54.498;18.206;2023-03-15T06:05:25;98609.89;;;3.10;97.50
34103;BME280;20381;54.498;18.206;2023-03-15T06:07:52;98620.21;;;3.10;97.46
34103;BME280;20381;54.498;18.206;2023-03-15T06:10:19;98620.80;;;3.18;97.63
34103;BME280;20381;54.498;18.206;2023-03-15T06:12:45;98625.45;;;3.20;97.50
34103;BME280;20381;54.498;18.206;2023-03-15T06:15:12;98629.11;;;3.26;97.66
34103;BME280;20381;54.498;18.206;2023-03-15T06:17:38;98634.05;;;3.32;97.67
34103;BME280;20381;54.498;18.206;2023-03-15T06:20:10;98638.75;;;3.33;97.57
34103;BME280;20381;54.498;18.206;2023-03-15T06:22:37;98648.66;;;3.33;97.61
34103;BME280;20381;54.498;18.206;2023-03-15T06:25:09;98651.50;;;3.38;97.67
34103;BME280;20381;54.498;18.206;2023-03-15T06:27:35;98656.17;;;3.40;97.74
34103;BME280;20381;54.498;18.206;2023-03-15T06:30:03;98667.56;;;3.46;97.82
34103;BME280;20381;54.498;18.206;2023-03-15T06:32:30;98656.17;;;3.40;97.70
34103;BME280;20381;54.498;18.206;2023-03-15T06:34:57;98677.17;;;3.54;97.62
34103;BME280;20381;54.498;18.206;2023-03-15T06:37:30;98685.64;;;3.57;97.68
34103;BME280;20381;54.498;18.206;2023-03-15T06:39:54;98688.86;;;3.64;97.84
34103;BME280;20381;54.498;18.206;2023-03-15T06:42:21;98688.91;;;3.63;97.69
34103;BME280;20381;54.498;18.206;2023-03-15T06:44:47;98691.72;;;3.68;97.89
34103;BME280;20381;54.498;18.206;2023-03-15T06:47:14;98703.91;;;3.76;97.90
34103;BME280;20381;54.498;18.206;2023-03-15T06:49:41;98707.17;;;3.81;97.87
34103;BME280;20381;54.498;18.206;2023-03-15T06:52:08;98704.36;;;3.88;97.90
34103;BME280;20381;54.498;18.206;2023-03-15T06:54:34;98702.72;;;3.97;97.95
34103;BME280;20381;54.498;18.206;2023-03-15T06:57:02;98713.69;;;4.03;97.93
34103;BME280;20381;54.498;18.206;2023-03-15T06:59:30;98717.00;;;4.07;97.83
34103;BME280;20381;54.498;18.206;2023-03-15T07:01:57;98731.59;;;4.08;97.83
34103;BME280;20381;54.498;18.206;2023-03-15T07:04:23;98739.63;;;4.12;97.86
34103;BME280;20381;54.498;18.206;2023-03-15T07:06:50;98733.39;;;4.18;98.04
34103;BME280;20381;54.498;18.206;2023-03-15T07:09:18;98740.84;;;4.25;98.07
34103;BME280;20381;54.498;18.206;2023-03-15T07:11:45;98744.78;;;4.36;98.22
34103;BME280;20381;54.498;18.206;2023-03-15T07:14:11;98752.97;;;4.47;98.30
34103;BME280;20381;54.498;18.206;2023-03-15T07:16:38;98758.02;;;4.50;97.91
34103;BME280;20381;54.498;18.206;2023-03-15T07:19:06;98762.52;;;4.45;97.67
34103;BME280;20381;54.498;18.206;2023-03-15T07:21:32;98759.05;;;4.46;97.87
34103;BME280;20381;54.498;18.206;2023-03-15T07:23:59;98767.74;;;4.55;98.08
34103;BME280;20381;54.498;18.206;2023-03-15T07:26:26;98772.96;;;4.65;97.97
34103;BME280;20381;54.498;18.206;2023-03-15T07:28:53;98766.94;;;4.87;98.14
34103;BME280;20381;54.498;18.206;2023-03-15T07:31:19;98775.58;;;5.40;99.64
34103;BME280;20381;54.498;18.206;2023-03-15T07:33:49;98774.98;;;6.25;100.00
34103;BME280;20381;54.498;18.206;2023-03-15T07:36:16;98768.73;;;6.86;99.99
34103;BME280;20381;54.498;18.206;2023-03-15T07:38:42;98775.66;;;7.22;98.53
34103;BME280;20381;54.498;18.206;2023-03-15T07:41:09;98774.83;;;7.39;98.07
34103;BME280;20381;54.498;18.206;2023-03-15T07:43:36;98777.05;;;7.81;97.56
34103;BME280;20381;54.498;18.206;2023-03-15T07:46:03;98778.20;;;7.76;96.03
34103;BME280;20381;54.498;18.206;2023-03-15T07:48:32;98778.64;;;7.93;97.03
34103;BME280;20381;54.498;18.206;2023-03-15T07:50:59;98777.81;;;8.17;96.92
34103;BME280;20381;54.498;18.206;2023-03-15T07:53:26;98779.22;;;8.40;97.19
34103;BME280;20381;54.498;18.206;2023-03-15T07:55:53;98786.89;;;8.59;96.52
34103;BME280;20381;54.498;18.206;2023-03-15T07:58:19;98789.78;;;8.93;97.69
34103;BME280;20381;54.498;18.206;2023-03-15T08:00:46;98787.75;;;9.37;97.14
34103;BME280;20381;54.498;18.206;2023-03-15T08:03:13;98795.39;;;9.40;96.26
34103;BME280;20381;54.498;18.206;2023-03-15T08:05:39;98799.20;;;9.18;95.31
34103;BME280;20381;54.498;18.206;2023-03-15T08:08:06;98806.02;;;8.73;94.23
34103;BME280;20381;54.498;18.206;2023-03-15T08:10:33;98809.53;;;8.41;95.44
34103;BME280;20381;54.498;18.206;2023-03-15T08:13:01;98814.17;;;8.34;95.78
34103;BME280;20381;54.498;18.206;2023-03-15T08:15:28;98812.73;;;8.28;96.21
34103;BME280;20381;54.498;18.206;2023-03-15T08:18:00;98815.17;;;8.49;96.48
34103;BME280;20381;54.498;18.206;2023-03-15T08:20:28;98818.47;;;8.44;96.05
34103;BME280;20381;54.498;18.206;2023-03-15T08:22:57;98823.14;;;8.46;96.29
34103;BME280;20381;54.498;18.206;2023-03-15T08:25:25;98819.87;;;8.58;96.22
34103;BME280;20381;54.498;18.206;2023-03-15T08:27:53;98833.92;;;8.47;95.83
34103;BME280;20381;54.498;18.206;2023-03-15T08:30:20;98835.08;;;8.41;96.12
34103;BME280;20381;54.498;18.206;2023-03-15T08:32:48;98836.61;;;8.86;96.95
34103;BME280;20381;54.498;18.206;2023-03-15T08:35:18;98840.90;;;9.64;98.70
34103;BME280;20381;54.498;18.206;2023-03-15T08:37:47;98838.58;;;10.19;97.17
34103;BME280;20381;54.498;18.206;2023-03-15T08:40:20;98846.64;;;10.44;96.51
34103;BME280;20381;54.498;18.206;2023-03-15T08:42:52;98849.63;;;10.38;95.65
34103;BME280;20381;54.498;18.206;2023-03-15T08:45:20;98853.41;;;11.31;97.30
34103;BME280;20381;54.498;18.206;2023-03-15T08:47:58;98851.28;;;11.58;97.03
34103;BME280;20381;54.498;18.206;2023-03-15T08:50:27;98850.70;;;13.13;99.54
34103;BME280;20381;54.498;18.206;2023-03-15T08:52:57;98856.50;;;14.60;98.21
34103;BME280;20381;54.498;18.206;2023-03-15T08:55:24;98857.66;;;15.87;97.56
34103;BME280;20381;54.498;18.206;2023-03-15T08:57:51;98862.73;;;16.78;97.57
34103;BME280;20381;54.498;18.206;2023-03-15T09:00:19;98862.84;;;17.72;94.42
34103;BME280;20381;54.498;18.206;2023-03-15T09:02:48;98869.28;;;17.98;96.81
34103;BME280;20381;54.498;18.206;2023-03-15T09:05:17;98869.50;;;18.58;97.26
34103;BME280;20381;54.498;18.206;2023-03-15T09:07:45;98867.26;;;18.86;95.78
34103;BME280;20381;54.498;18.206;2023-03-15T09:12:42;98887.63;;;17.90;95.59
34103;BME280;20381;54.498;18.206;2023-03-15T09:15:12;98877.71;;;17.63;95.02
34103;BME280;20381;54.498;18.206;2023-03-15T09:17:40;98893.67;;;16.92;93.82
34103;BME280;20381;54.498;18.206;2023-03-15T09:20:12;98889.14;;;16.10;94.89
34103;BME280;20381;54.498;18.206;2023-03-15T09:22:41;98893.82;;;15.36;93.06
34103;BME280;20381;54.498;18.206;2023-03-15T09:25:14;98903.47;;;14.29;93.12
34103;BME280;20381;54.498;18.206;2023-03-15T09:27:37;98902.08;;;13.29;93.24
34103;BME280;20381;54.498;18.206;2023-03-15T09:30:10;98925.30;;;12.33;93.86
34103;BME280;20381;54.498;18.206;2023-03-15T09:32:40;98923.38;;;11.55;93.73
34103;BME280;20381;54.498;18.206;2023-03-15T09:35:16;98918.25;;;10.83;94.24
34103;BME280;20381;54.498;18.206;2023-03-15T09:37:41;98921.61;;;10.85;96.38
34103;BME280;20381;54.498;18.206;2023-03-15T09:40:18;98921.47;;;11.30;95.21
34103;BME280;20381;54.498;18.206;2023-03-15T09:51:15;98929.94;;;17.94;96.47
34103;BME280;20381;54.498;18.206;2023-03-15T09:54:04;98918.34;;;20.23;98.06
34103;BME280;20381;54.498;18.206;2023-03-15T09:56:36;98923.34;;;22.39;97.89
34103;BME280;20381;54.498;18.206;2023-03-15T09:59:17;98910.66;;;24.29;97.75
34103;BME280;20381;54.498;18.206;2023-03-15T10:01:46;98927.09;;;26.18;98.09
34103;BME280;20381;54.498;18.206;2023-03-15T10:04:31;98929.34;;;27.81;96.00
34103;BME280;20381;54.498;18.206;2023-03-15T10:07:02;98934.45;;;28.40;92.69
34103;BME280;20381;54.498;18.206;2023-03-15T10:09:31;98938.91;;;27.56;87.44
34103;BME280;20381;54.498;18.206;2023-03-15T10:12:14;98945.89;;;26.24;90.16
34103;BME280;20381;54.498;18.206;2023-03-15T10:18:06;98956.61;;;27.43;89.88
34103;BME280;20381;54.498;18.206;2023-03-15T10:20:53;98963.66;;;26.53;87.82
34103;BME280;20381;54.498;18.206;2023-03-15T10:23:35;98966.66;;;25.05;89.10
34103;BME280;20381;54.498;18.206;2023-03-15T10:26:22;98976.28;;;23.93;88.87
34103;BME280;20381;54.498;18.206;2023-03-15T10:28:52;98989.06;;;21.96;87.24
34103;BME280;20381;54.498;18.206;2023-03-15T10:31:25;98981.48;;;20.46;86.79
34103;BME280;20381;54.498;18.206;2023-03-15T10:33:53;98992.52;;;19.46;87.19
34103;BME280;20381;54.498;18.206;2023-03-15T10:36:24;98993.18;;;18.64;87.05
34103;BME280;20381;54.498;18.206;2023-03-15T10:38:51;99001.50;;;17.41;86.77
34103;BME280;20381;54.498;18.206;2023-03-15T10:41:35;99001.63;;;16.72;89.42
34103;BME280;20381;54.498;18.206;2023-03-15T10:44:09;99008.30;;;18.38;93.00
34103;BME280;20381;54.498;18.206;2023-03-15T10:46:39;99003.55;;;20.64;93.42
34103;BME280;20381;54.498;18.206;2023-03-15T10:49:18;99012.94;;;22.30;89.10
34103;BME280;20381;54.498;18.206;2023-03-15T10:51:47;99017.15;;;23.37;88.98
34103;BME280;20381;54.498;18.206;2023-03-15T10:54:19;99021.95;;;25.19;86.51
34103;BME280;20381;54.498;18.206;2023-03-15T10:59:34;99011.39;;;28.97;87.79
34103;BME280;20381;54.498;18.206;2023-03-15T11:07:53;99027.19;;;29.94;80.32
34103;BME280;20381;54.498;18.206;2023-03-15T11:10:28;99034.39;;;28.36;82.46
34103;BME280;20381;54.498;18.206;2023-03-15T11:13:17;99022.58;;;29.43;82.79
34103;BME280;20381;54.498;18.206;2023-03-15T11:21:23;99028.11;;;30.61;81.77
34103;BME280;20381;54.498;18.206;2023-03-15T11:24:03;99027.56;;;31.64;79.34
34103;BME280;20381;54.498;18.206;2023-03-15T11:26:35;99025.48;;;31.38;76.69
34103;BME280;20381;54.498;18.206;2023-03-15T11:29:18;99025.48;;;31.38;76.69
34103;BME280;20381;54.498;18.206;2023-03-15T11:31:44;99038.58;;;32.71;76.09
34103;BME280;20381;54.498;18.206;2023-03-15T11:34:21;99024.59;;;34.12;76.03
34103;BME280;20381;54.498;18.206;2023-03-15T11:36:55;99035.37;;;35.22;74.48
34103;BME280;20381;54.498;18.206;2023-03-15T11:39:27;99038.58;;;35.02;72.42
34103;BME280;20381;54.498;18.206;2023-03-15T11:42:01;99030.55;;;35.68;71.58
34103;BME280;20381;54.498;18.206;2023-03-15T11:44:36;99039.86;;;36.51;69.17
34103;BME280;20381;54.498;18.206;2023-03-15T11:47:31;99035.41;;;37.04;68.45
34103;BME280;20381;54.498;18.206;2023-03-15T11:50:03;99035.52;;;36.85;63.39
34103;BME280;20381;54.498;18.206;2023-03-15T11:52:30;99043.27;;;34.73;61.68
34103;BME280;20381;54.498;18.206;2023-03-15T11:54:58;99049.38;;;31.72;59.40
34103;BME280;20381;54.498;18.206;2023-03-15T11:57:41;99054.80;;;28.54;57.87
34103;BME280;20381;54.498;18.206;2023-03-15T12:03:23;99070.47;;;22.84;56.35
34103;BME280;20381;54.498;18.206;2023-03-15T12:06:00;99076.73;;;20.57;54.86
34103;BME280;20381;54.498;18.206;2023-03-15T12:16:44;99079.44;;;24.19;54.18
34103;BME280;20381;54.498;18.206;2023-03-15T12:19:12;99067.67;;;25.84;53.20
34103;BME280;20381;54.498;18.206;2023-03-15T12:21:55;99067.09;;;27.21;52.94
34103;BME280;20381;54.498;18.206;2023-03-15T12:24:29;99063.06;;;28.72;52.92
34103;BME280;20381;54.498;18.206;2023-03-15T12:27:14;99066.84;;;29.89;52.32
34103;BME280;20381;54.498;18.206;2023-03-15T12:29:47;99066.28;;;30.89;52.06
34103;BME280;20381;54.498;18.206;2023-03-15T12:32:16;99063.45;;;31.03;50.58
34103;BME280;20381;54.498;18.206;2023-03-15T12:34:49;99065.91;;;30.79;50.68
34103;BME280;20381;54.498;18.206;2023-03-15T12:37:43;99060.74;;;30.07;49.59
34103;BME280;20381;54.498;18.206;2023-03-15T12:53:26;99113.81;;;19.23;44.75
34103;BME280;20381;54.498;18.206;2023-03-15T12:56:29;99120.03;;;17.90;43.19
34103;BME280;20381;54.498;18.206;2023-03-15T13:02:43;99140.53;;;15.09;42.95
34103;BME280;20381;54.498;18.206;2023-03-15T13:05:18;99145.58;;;13.46;42.77
34103;BME280;20381;54.498;18.206;2023-03-15T13:10:58;99161.48;;;11.66;42.87
34103;BME280;20381;54.498;18.206;2023-03-15T13:13:54;99157.63;;;11.36;43.48
34103;BME280;20381;54.498;18.206;2023-03-15T13:19:10;99162.91;;;11.13;43.35
34103;BME280;20381;54.498;18.206;2023-03-15T13:25:10;99154.25;;;10.19;43.15
34103;BME280;20381;54.498;18.206;2023-03-15T13:27:55;99154.25;;;10.19;43.15
34103;BME280;20381;54.498;18.206;2023-03-15T13:30:38;99174.72;;;9.77;43.49
34103;BME280;20381;54.498;18.206;2023-03-15T13:33:26;99180.40;;;9.26;43.41
34103;BME280;20381;54.498;18.206;2023-03-15T13:35:59;99177.86;;;8.81;43.83
34103;BME280;20381;54.498;18.206;2023-03-15T13:38:33;99183.92;;;8.54;43.76
34103;BME280;20381;54.498;18.206;2023-03-15T13:41:11;99186.36;;;8.29;43.78
34103;BME280;20381;54.498;18.206;2023-03-15T13:43:36;99188.64;;;8.08;44.00
34103;BME280;20381;54.498;18.206;2023-03-15T13:46:05;99191.80;;;7.96;44.14
34103;BME280;20381;54.498;18.206;2023-03-15T13:48:35;99205.05;;;7.90;44.31
34103;BME280;20381;54.498;18.206;2023-03-15T13:54:10;99205.59;;;7.88;44.39
34103;BME280;20381;54.498;18.206;2023-03-15T13:57:10;99196.51;;;7.77;44.60
34103;BME280;20381;54.498;18.206;2023-03-15T14:02:17;99192.84;;;7.52;44.66
34103;BME280;20381;54.498;18.206;2023-03-15T14:04:52;99194.72;;;7.38;44.77
34103;BME280;20381;54.498;18.206;2023-03-15T14:07:42;99208.22;;;7.36;45.06
34103;BME280;20381;54.498;18.206;2023-03-15T14:12:54;99211.20;;;7.48;45.25
34103;BME280;20381;54.498;18.206;2023-03-15T14:15:26;99210.17;;;7.42;45.34
34103;BME280;20381;54.498;18.206;2023-03-15T14:20:40;99215.37;;;7.21;45.54
34103;BME280;20381;54.498;18.206;2023-03-15T14:23:21;99226.78;;;7.07;45.75
34103;BME280;20381;54.498;18.206;2023-03-15T14:25:50;99232.61;;;7.02;45.97
34103;BME280;20381;54.498;18.206;2023-03-15T14:28:22;99226.34;;;6.85;45.90
34103;BME280;20381;54.498;18.206;2023-03-15T14:30:54;99234.98;;;6.64;45.80
34103;BME280;20381;54.498;18.206;2023-03-15T14:33:36;99237.67;;;6.61;45.98
34103;BME280;20381;54.498;18.206;2023-03-15T14:36:07;99234.20;;;6.62;46.12
34103;BME280;20381;54.498;18.206;2023-03-15T14:38:38;99246.75;;;6.61;46.13